Time;durP1;ratioP1;P1;durP2;ratioP2;P2;SDS_P1;SDS_P2;PMS_P1;PMS_P2;Temp;Humidity;BMP_temperature;BMP_pressure;BME280_temperature;BME280_humidity;BME280_pressure;Samples;Min_cycle;Max_cycle;Signal;HPM_P1;HPM_P2
2024/03/24 00:01:59;;;;;;;10.68;3.55;;;7.10;85.40;;;;;;5060503;28;20028;-73
2024/03/24 00:04:25;;;;;;;9.65;3.13;;;7.10;85.90;;;;;;5059549;28;20036;-74
2024/03/24 00:06:50;;;;;;;10.30;2.95;;;7.10;86.10;;;;;;5040180;28;20032;-73
2024/03/24 00:09:16;;;;;;;8.65;3.15;;;7.10;86.50;;;;;;5042081;28;20037;-76
2024/03/24 00:11:42;;;;;;;8.32;3.13;;;7.10;87.00;;;;;;5056942;28;20048;-75
2024/03/24 00:14:08;;;;;;;9.93;3.53;;;7.10;87.20;;;;;;5058704;28;20029;-72
2024/03/24 00:16:33;;;;;;;13.57;3.58;;;7.10;87.40;;;;;;5041957;28;20491;-74
2024/03/24 00:19:02;;;;;;;9.27;3.13;;;7.10;87.20;;;;;;5057563;28;20029;-76
2024/03/24 00:21:28;;;;;;;12.27;4.28;;;7.10;87.30;;;;;;5039101;28;20206;-74
2024/03/24 00:23:53;;;;;;;7.25;2.85;;;7.00;87.30;;;;;;5039605;28;20500;-74
2024/03/24 00:26:19;;;;;;;9.80;3.20;;;7.10;87.60;;;;;;5041933;28;20036;-76
2024/03/24 00:28:44;;;;;;;13.27;3.35;;;7.10;87.50;;;;;;5041973;28;20131;-74
2024/03/24 00:31:10;;;;;;;12.35;3.03;;;7.10;87.60;;;;;;5039668;28;20514;-76
2024/03/24 00:33:35;;;;;;;7.28;2.80;;;7.10;87.30;;;;;;5039795;28;20035;-75
2024/03/24 00:36:01;;;;;;;11.73;3.20;;;7.10;87.30;;;;;;5057745;28;20032;-74
2024/03/24 00:38:27;;;;;;;10.15;3.50;;;7.10;87.10;;;;;;5057189;28;20028;-75
2024/03/24 00:40:52;;;;;;;12.55;3.35;;;7.10;87.00;;;;;;5058531;28;20242;-76
2024/03/24 00:43:18;;;;;;;10.27;3.45;;;7.10;86.90;;;;;;5060897;28;20021;-73
2024/03/24 00:45:44;;;;;;;8.98;3.03;;;7.10;86.60;;;;;;5058034;28;20155;-73
2024/03/24 00:48:09;;;;;;;11.02;3.30;;;7.10;86.20;;;;;;5043326;28;20495;-74
2024/03/24 00:50:35;;;;;;;10.40;3.70;;;7.10;86.00;;;;;;5057656;28;20036;-76
2024/03/24 00:53:01;;;;;;;13.77;3.10;;;7.10;86.00;;;;;;5059602;28;20037;-74
2024/03/24 00:55:26;;;;;;;9.60;3.40;;;7.20;85.80;;;;;;5058714;28;20079;-75
2024/03/24 00:57:52;;;;;;;10.68;2.95;;;7.20;85.50;;;;;;5041932;28;20444;-75
2024/03/24 01:00:18;;;;;;;8.52;3.13;;;7.20;85.50;;;;;;5056464;28;20134;-75
2024/03/24 01:02:50;;;;;;;9.68;3.10;;;7.20;85.40;;;;;;5045352;28;20036;-75
2024/03/24 01:05:16;;;;;;;11.35;3.42;;;7.30;85.10;;;;;;5037772;28;20036;-78
2024/03/24 01:07:42;;;;;;;10.60;3.00;;;7.20;85.10;;;;;;5059067;28;20036;-74
2024/03/24 01:10:08;;;;;;;10.00;2.95;;;7.20;85.00;;;;;;5056221;28;20079;-76
2024/03/24 01:12:33;;;;;;;16.08;3.55;;;7.20;85.00;;;;;;5040536;28;20044;-75
2024/03/24 01:14:59;;;;;;;13.10;4.00;;;7.30;84.50;;;;;;5057790;28;20487;-78
2024/03/24 01:17:26;;;;;;;14.80;4.13;;;7.30;83.70;;;;;;5055402;28;20061;-72
2024/03/24 01:19:51;;;;;;;17.23;4.90;;;7.30;83.20;;;;;;5039494;28;20709;-76
2024/03/24 01:22:17;;;;;;;12.77;3.95;;;7.40;83.20;;;;;;5057048;28;20039;-74
2024/03/24 01:24:43;;;;;;;11.88;4.15;;;7.40;82.60;;;;;;5042563;28;20112;-75
2024/03/24 01:27:08;;;;;;;14.20;4.03;;;7.40;82.40;;;;;;5044715;28;20063;-73
2024/03/24 01:29:34;;;;;;;16.80;4.85;;;7.40;82.30;;;;;;5058404;28;20048;-73
2024/03/24 01:31:59;;;;;;;12.93;4.13;;;7.50;82.00;;;;;;5044242;28;20100;-76
2024/03/24 01:34:26;;;;;;;11.05;4.05;;;7.50;81.40;;;;;;5036289;28;20500;-74
2024/03/24 01:36:52;;;;;;;13.38;4.38;;;7.50;81.10;;;;;;5061811;28;20037;-74
2024/03/24 01:39:18;;;;;;;12.85;3.17;;;7.50;80.80;;;;;;5042427;28;20094;-75
2024/03/24 01:41:43;;;;;;;14.60;4.82;;;7.60;80.70;;;;;;5061719;28;20036;-74
2024/03/24 01:44:09;;;;;;;11.60;3.97;;;7.50;80.80;;;;;;5043123;28;20017;-76
2024/03/24 01:46:35;;;;;;;12.57;3.58;;;7.50;80.90;;;;;;5058224;28;20497;-74
2024/03/24 01:49:00;;;;;;;13.68;3.78;;;7.50;80.50;;;;;;5042688;28;20510;-76
2024/03/24 01:51:27;;;;;;;14.38;3.55;;;7.60;80.70;;;;;;5060067;28;20045;-77
2024/03/24 01:53:54;;;;;;;10.93;3.10;;;7.60;80.50;;;;;;5056805;28;20123;-78
2024/03/24 01:56:20;;;;;;;11.15;3.20;;;7.60;80.40;;;;;;5038891;28;20101;-76
2024/03/24 01:58:45;;;;;;;14.00;4.15;;;7.60;80.30;;;;;;5055346;28;20380;-76
2024/03/24 02:01:12;;;;;;;17.60;3.42;;;7.50;80.30;;;;;;5041215;28;20786;-74
2024/03/24 02:03:38;;;;;;;13.82;3.80;;;7.60;80.00;;;;;;5061319;28;20896;-76
2024/03/24 02:06:04;;;;;;;14.20;4.15;;;7.60;79.70;;;;;;5061397;28;20095;-76
2024/03/24 02:08:30;;;;;;;12.20;3.75;;;7.60;79.50;;;;;;5061034;28;20037;-74
2024/03/24 02:10:57;;;;;;;12.35;3.80;;;7.70;79.70;;;;;;5054001;28;20452;-77
2024/03/24 02:13:23;;;;;;;11.90;3.42;;;7.70;79.60;;;;;;5037517;28;20164;-76
2024/03/24 02:15:50;;;;;;;12.18;4.20;;;7.70;79.40;;;;;;5059704;28;20540;-77
2024/03/24 02:18:15;;;;;;;15.90;4.45;;;7.70;79.50;;;;;;5041095;28;20084;-75
2024/03/24 02:20:41;;;;;;;15.95;5.03;;;7.70;79.50;;;;;;5032716;28;20122;-76
2024/03/24 02:23:07;;;;;;;16.98;5.45;;;7.70;79.50;;;;;;5054304;28;20029;-75
2024/03/24 02:25:32;;;;;;;19.45;6.75;;;7.60;79.70;;;;;;5042511;28;20052;-76
2024/03/24 02:27:58;;;;;;;16.35;6.40;;;7.70;79.70;;;;;;5043242;28;20074;-75
2024/03/24 02:30:23;;;;;;;18.40;6.60;;;7.80;79.30;;;;;;5055405;28;20127;-77
2024/03/24 02:32:49;;;;;;;18.23;8.15;;;7.70;79.40;;;;;;5035500;28;20041;-74
2024/03/24 02:35:15;;;;;;;15.20;6.70;;;7.70;79.50;;;;;;5039181;28;20053;-74
2024/03/24 02:37:40;;;;;;;16.80;5.97;;;7.70;79.30;;;;;;5060093;28;20044;-75
2024/03/24 02:40:10;;;;;;;16.77;6.03;;;7.70;79.50;;;;;;5060497;28;20040;-75
2024/03/24 02:42:36;;;;;;;15.57;5.68;;;7.70;79.40;;;;;;5042629;28;20119;-74
2024/03/24 02:45:02;;;;;;;12.35;5.57;;;7.70;79.80;;;;;;5036535;28;20526;-74
2024/03/24 02:47:28;;;;;;;15.43;4.75;;;7.70;79.80;;;;;;5043230;28;20071;-75
2024/03/24 02:49:53;;;;;;;15.82;5.20;;;7.60;79.70;;;;;;5057964;28;20477;-73
2024/03/24 02:52:19;;;;;;;14.15;4.82;;;7.70;79.50;;;;;;5042633;28;20116;-75
2024/03/24 02:54:45;;;;;;;14.95;4.70;;;7.60;79.70;;;;;;5060236;28;20056;-73
2024/03/24 02:57:11;;;;;;;15.77;4.90;;;7.60;79.80;;;;;;5043216;28;20440;-75
2024/03/24 02:59:36;;;;;;;13.95;4.13;;;7.60;80.00;;;;;;5039525;28;20395;-75
2024/03/24 03:02:03;;;;;;;15.20;3.88;;;7.60;80.30;;;;;;5040817;28;20201;-76
2024/03/24 03:04:29;;;;;;;10.88;4.13;;;7.50;80.40;;;;;;5056310;28;20144;-75
2024/03/24 03:06:54;;;;;;;14.38;3.88;;;7.50;80.00;;;;;;5045268;28;20290;-73
2024/03/24 03:09:20;;;;;;;10.90;4.13;;;7.60;80.20;;;;;;5040324;28;20051;-75
2024/03/24 03:11:46;;;;;;;15.40;3.55;;;7.60;80.50;;;;;;5060274;28;20043;-75
2024/03/24 03:14:12;;;;;;;13.52;4.30;;;7.50;80.40;;;;;;5058854;28;20032;-73
2024/03/24 03:16:40;;;;;;;17.00;3.90;;;7.50;80.40;;;;;;5041125;28;20110;-77
2024/03/24 03:19:06;;;;;;;11.85;3.80;;;7.50;80.60;;;;;;5060716;28;20025;-75
2024/03/24 03:21:32;;;;;;;12.02;3.53;;;7.40;80.80;;;;;;5040443;28;20036;-74
2024/03/24 03:23:58;;;;;;;15.07;4.03;;;7.40;80.70;;;;;;5035978;28;20028;-77
2024/03/24 03:26:25;;;;;;;14.75;3.80;;;7.50;80.70;;;;;;5041782;28;20032;-74
2024/03/24 03:28:50;;;;;;;12.93;4.75;;;7.40;80.70;;;;;;5060465;28;20036;-73
2024/03/24 03:31:16;;;;;;;11.80;3.90;;;7.50;80.50;;;;;;5056398;28;20461;-75
2024/03/24 03:33:42;;;;;;;16.23;4.78;;;7.50;80.70;;;;;;5060746;28;20033;-74
2024/03/24 03:36:08;;;;;;;12.02;4.25;;;7.50;80.70;;;;;;5037744;28;20110;-74
2024/03/24 03:38:33;;;;;;;11.88;4.40;;;7.50;80.50;;;;;;5057623;28;20488;-74
2024/03/24 03:40:59;;;;;;;14.63;4.20;;;7.40;80.80;;;;;;5056096;28;20049;-73
2024/03/24 03:43:25;;;;;;;16.00;4.93;;;7.40;80.90;;;;;;5041348;28;20064;-76
2024/03/24 03:45:52;;;;;;;14.95;4.22;;;7.40;81.00;;;;;;5056213;28;20636;-74
2024/03/24 03:48:18;;;;;;;14.63;4.65;;;7.40;81.20;;;;;;5042509;28;20028;-75
2024/03/24 03:50:45;;;;;;;13.98;5.25;;;7.40;81.00;;;;;;5058874;28;20043;-75
2024/03/24 03:53:17;;;;;;;9.52;3.85;;;7.50;80.90;;;;;;5060006;28;20056;-77
2024/03/24 03:55:47;;;;;;;14.15;5.78;;;7.40;80.90;;;;;;5058000;28;20489;-74
2024/03/24 03:58:13;;;;;;;14.65;5.80;;;7.40;81.20;;;;;;5038524;28;20538;-74
2024/03/24 04:00:39;;;;;;;15.07;4.90;;;7.50;81.10;;;;;;5059530;28;20044;-75
2024/03/24 04:03:04;;;;;;;13.32;4.70;;;7.50;80.90;;;;;;5042811;28;20384;-76
2024/03/24 04:05:30;;;;;;;14.27;4.20;;;7.50;81.10;;;;;;5038670;28;20044;-76
2024/03/24 04:07:56;;;;;;;13.65;4.75;;;7.40;81.50;;;;;;5060843;28;20377;-74
2024/03/24 04:10:22;;;;;;;14.85;4.60;;;7.40;81.40;;;;;;5050731;28;20121;-75
2024/03/24 04:12:47;;;;;;;14.75;4.53;;;7.40;81.50;;;;;;5041674;28;20054;-76
2024/03/24 04:15:13;;;;;;;15.60;5.32;;;7.40;81.50;;;;;;5057658;28;20043;-76
2024/03/24 04:17:38;;;;;;;19.58;6.72;;;7.40;81.40;;;;;;5060749;28;20052;-76
2024/03/24 04:20:07;;;;;;;18.30;6.32;;;7.40;81.50;;;;;;5057082;28;20481;-75
2024/03/24 04:22:33;;;;;;;15.50;6.50;;;7.40;81.30;;;;;;5039265;28;20440;-76
2024/03/24 04:24:59;;;;;;;20.50;7.88;;;7.40;81.40;;;;;;5057713;28;20342;-78
2024/03/24 04:27:24;;;;;;;19.83;7.63;;;7.30;81.60;;;;;;5055506;28;20025;-79
2024/03/24 04:29:50;;;;;;;21.20;7.05;;;7.40;81.60;;;;;;5054964;28;20044;-78
2024/03/24 04:32:16;;;;;;;21.13;7.82;;;7.40;81.50;;;;;;5060154;28;20045;-77
2024/03/24 04:34:42;;;;;;;17.00;7.15;;;7.40;81.60;;;;;;5039283;28;20820;-75
2024/03/24 04:37:08;;;;;;;18.27;6.90;;;7.40;81.90;;;;;;5041443;28;20044;-74
2024/03/24 04:39:34;;;;;;;15.85;5.25;;;7.40;81.90;;;;;;5058031;28;20053;-74
2024/03/24 04:42:00;;;;;;;16.25;4.93;;;7.30;81.90;;;;;;5040598;28;20166;-74
2024/03/24 04:44:25;;;;;;;16.23;4.80;;;7.30;81.90;;;;;;5056857;28;20032;-75
2024/03/24 04:46:51;;;;;;;20.25;4.28;;;7.30;82.20;;;;;;5037626;28;20025;-75
2024/03/24 04:49:17;;;;;;;15.13;5.00;;;7.30;82.10;;;;;;5037736;28;20036;-79
2024/03/24 04:51:43;;;;;;;15.40;4.88;;;7.30;82.10;;;;;;5058440;28;20116;-77
2024/03/24 04:54:09;;;;;;;15.15;4.88;;;7.30;82.10;;;;;;5056573;28;20033;-73
2024/03/24 04:56:34;;;;;;;17.15;4.20;;;7.40;81.90;;;;;;5039830;28;20121;-74
2024/03/24 04:59:00;;;;;;;16.58;4.13;;;7.40;81.70;;;;;;5061642;28;20029;-73
2024/03/24 05:01:26;;;;;;;17.33;5.43;;;7.40;81.80;;;;;;5046378;28;20477;-75
2024/03/24 05:03:52;;;;;;;16.15;4.00;;;7.40;81.80;;;;;;5044316;28;20035;-78
2024/03/24 05:06:19;;;;;;;13.05;3.65;;;7.50;81.90;;;;;;5045793;28;20040;-74
2024/03/24 05:08:45;;;;;;;12.55;4.55;;;7.50;81.90;;;;;;5063445;28;20122;-74
2024/03/24 05:11:11;;;;;;;16.63;4.45;;;7.40;82.00;;;;;;5044610;28;20033;-77
2024/03/24 05:13:38;;;;;;;12.98;4.45;;;7.40;82.10;;;;;;5043939;28;20017;-74
2024/03/24 05:16:07;;;;;;;13.35;4.47;;;7.50;82.20;;;;;;5060243;28;20089;-74
2024/03/24 05:18:36;;;;;;;13.32;4.18;;;7.40;82.20;;;;;;5061851;28;20315;-77
2024/03/24 05:21:03;;;;;;;18.42;4.63;;;7.50;82.30;;;;;;5044508;28;20329;-75
2024/03/24 05:23:29;;;;;;;14.07;4.30;;;7.50;82.20;;;;;;5045934;28;20384;-74
2024/03/24 05:25:54;;;;;;;14.20;5.03;;;7.60;82.40;;;;;;5060704;28;20486;-75
2024/03/24 05:28:21;;;;;;;13.43;4.85;;;7.50;82.50;;;;;;5046952;28;20507;-75
2024/03/24 05:30:49;;;;;;;17.42;5.55;;;7.50;82.50;;;;;;5060882;28;20366;-74
2024/03/24 05:33:15;;;;;;;16.70;4.65;;;7.50;82.50;;;;;;5064975;28;20025;-76
2024/03/24 05:35:41;;;;;;;17.63;5.75;;;7.50;82.60;;;;;;5065347;28;20090;-74
2024/03/24 05:38:07;;;;;;;17.92;6.88;;;7.50;82.50;;;;;;5065415;28;20029;-75
2024/03/24 05:40:32;;;;;;;15.95;6.97;;;7.50;82.60;;;;;;5044123;28;20060;-76
2024/03/24 05:42:58;;;;;;;16.90;6.18;;;7.50;82.60;;;;;;5061173;28;20117;-76
2024/03/24 05:45:23;;;;;;;15.45;6.78;;;7.50;82.80;;;;;;5060614;28;20032;-76
2024/03/24 05:47:49;;;;;;;17.58;5.82;;;7.50;82.70;;;;;;5062544;28;20079;-73
2024/03/24 05:50:15;;;;;;;17.80;5.53;;;7.50;82.80;;;;;;5045399;28;20131;-74
2024/03/24 05:52:42;;;;;;;12.35;5.10;;;7.50;83.10;;;;;;5043622;28;20048;-76
2024/03/24 05:55:09;;;;;;;14.68;5.85;;;7.40;83.30;;;;;;5059684;28;20537;-74
2024/03/24 05:57:35;;;;;;;19.67;6.18;;;7.40;83.40;;;;;;5060447;28;20029;-74
2024/03/24 06:00:01;;;;;;;18.33;6.70;;;7.50;83.40;;;;;;5042718;28;20805;-77
2024/03/24 06:02:27;;;;;;;17.98;6.25;;;7.50;83.90;;;;;;5058111;28;20032;-73
2024/03/24 06:04:53;;;;;;;17.42;6.22;;;7.50;84.00;;;;;;5042513;28;20500;-73
2024/03/24 06:07:19;;;;;;;23.42;7.18;;;7.50;83.80;;;;;;5052126;28;20175;-77
2024/03/24 06:09:45;;;;;;;16.10;5.70;;;7.40;83.90;;;;;;5063599;28;20047;-75
2024/03/24 06:12:10;;;;;;;16.98;6.65;;;7.40;83.90;;;;;;5047887;28;20036;-77
2024/03/24 06:14:37;;;;;;;14.88;5.00;;;7.40;84.00;;;;;;5046012;28;20032;-76
2024/03/24 06:17:04;;;;;;;18.98;5.90;;;7.40;84.40;;;;;;5044036;28;20080;-77
2024/03/24 06:19:29;;;;;;;17.05;5.72;;;7.40;84.90;;;;;;5064396;28;20803;-76
2024/03/24 06:21:55;;;;;;;21.98;5.82;;;7.50;84.70;;;;;;5064672;28;20048;-74
2024/03/24 06:24:21;;;;;;;18.85;4.85;;;7.40;84.60;;;;;;5063832;28;20024;-75
2024/03/24 06:26:46;;;;;;;17.23;5.28;;;7.40;84.40;;;;;;5047648;28;20043;-73
2024/03/24 06:29:12;;;;;;;15.23;4.75;;;7.40;84.40;;;;;;5047538;28;20028;-75
2024/03/24 06:31:38;;;;;;;17.52;5.35;;;7.40;84.00;;;;;;5063772;28;20048;-74
2024/03/24 06:34:06;;;;;;;19.13;4.93;;;7.40;84.40;;;;;;5047860;28;20024;-76
2024/03/24 06:36:37;;;;;;;16.27;5.35;;;7.40;84.30;;;;;;5063033;28;20396;-75
2024/03/24 06:39:03;;;;;;;14.27;4.82;;;7.50;84.40;;;;;;5043966;28;20016;-76
2024/03/24 06:41:29;;;;;;;17.40;4.93;;;7.50;84.20;;;;;;5048158;28;20883;-75
2024/03/24 06:43:55;;;;;;;15.40;4.72;;;7.70;84.00;;;;;;5064589;28;20028;-74
2024/03/24 06:46:22;;;;;;;16.30;4.75;;;8.10;82.50;;;;;;5062843;28;20036;-77
2024/03/24 06:48:47;;;;;;;14.43;4.80;;;7.90;82.80;;;;;;5065480;28;20241;-75
2024/03/24 06:51:13;;;;;;;18.08;5.13;;;8.20;82.50;;;;;;5044805;28;20048;-76
2024/03/24 06:53:39;;;;;;;15.98;4.70;;;8.50;81.70;;;;;;5065759;28;20028;-76
2024/03/24 06:56:05;;;;;;;17.58;4.82;;;8.30;82.10;;;;;;5044966;28;20158;-74
2024/03/24 06:58:30;;;;;;;10.43;3.92;;;8.10;83.00;;;;;;5045126;28;20035;-76
2024/03/24 07:00:56;;;;;;;14.77;4.82;;;7.90;83.40;;;;;;5044792;28;20119;-76
2024/03/24 07:03:22;;;;;;;14.68;4.43;;;7.80;83.40;;;;;;5057159;28;20171;-75
2024/03/24 07:05:48;;;;;;;15.30;4.38;;;7.70;83.80;;;;;;5061631;28;20033;-74
2024/03/24 07:08:17;;;;;;;11.02;4.60;;;7.70;83.70;;;;;;5062701;28;20100;-74
2024/03/24 07:10:43;;;;;;;12.80;4.30;;;7.60;83.70;;;;;;5052584;28;20036;-74
2024/03/24 07:13:08;;;;;;;13.57;4.53;;;7.70;83.80;;;;;;5062210;28;20020;-74
2024/03/24 07:15:34;;;;;;;15.85;5.13;;;7.80;83.80;;;;;;5042521;28;20155;-76
2024/03/24 07:17:59;;;;;;;16.85;5.38;;;7.80;83.90;;;;;;5043174;28;20393;-73
2024/03/24 07:20:25;;;;;;;18.10;5.22;;;7.80;84.00;;;;;;5059972;28;20083;-77
2024/03/24 07:22:51;;;;;;;13.48;4.97;;;7.70;84.10;;;;;;5042371;28;20032;-74
2024/03/24 07:25:16;;;;;;;14.80;5.35;;;7.70;84.40;;;;;;5060455;28;20202;-73
2024/03/24 07:27:42;;;;;;;14.35;5.15;;;7.70;84.40;;;;;;5061984;28;20067;-74
2024/03/24 07:30:08;;;;;;;18.55;5.13;;;7.80;84.30;;;;;;5043142;28;20047;-74
2024/03/24 07:32:35;;;;;;;22.95;5.45;;;7.90;84.40;;;;;;5030589;28;20037;-76
2024/03/24 07:35:04;;;;;;;18.83;5.22;;;8.10;84.20;;;;;;5040849;28;20067;-75
2024/03/24 07:37:31;;;;;;;13.80;4.72;;;8.10;83.60;;;;;;5058571;28;20049;-74
2024/03/24 07:39:57;;;;;;;16.23;5.35;;;8.10;83.50;;;;;;5042175;28;20040;-76
2024/03/24 07:42:23;;;;;;;16.08;5.60;;;8.20;83.60;;;;;;5059686;28;20025;-74
2024/03/24 07:44:48;;;;;;;17.15;5.20;;;8.40;82.90;;;;;;5063589;28;20068;-73
2024/03/24 07:47:14;;;;;;;17.08;4.97;;;8.50;81.90;;;;;;5061525;28;20366;-76
2024/03/24 07:49:40;;;;;;;15.38;5.13;;;8.60;81.40;;;;;;5059049;28;20508;-73
2024/03/24 07:52:05;;;;;;;13.07;4.80;;;8.80;81.50;;;;;;5063217;28;20508;-73
2024/03/24 07:54:31;;;;;;;14.57;4.70;;;9.00;80.60;;;;;;5060449;28;20078;-76
2024/03/24 07:56:57;;;;;;;14.85;4.70;;;9.10;80.20;;;;;;5045188;28;20101;-74
2024/03/24 07:59:22;;;;;;;12.73;4.60;;;9.00;79.60;;;;;;5062492;28;20067;-75
2024/03/24 08:01:48;;;;;;;13.55;4.63;;;9.10;78.70;;;;;;5064780;28;20032;-75
2024/03/24 08:04:15;;;;;;;16.50;4.72;;;9.10;79.20;;;;;;5065849;28;20029;-77
2024/03/24 08:06:43;;;;;;;14.70;5.20;;;9.10;78.80;;;;;;5056477;28;20128;-77
2024/03/24 08:09:10;;;;;;;15.27;5.88;;;9.20;78.30;;;;;;5047027;28;20124;-75
2024/03/24 08:11:36;;;;;;;17.20;6.35;;;9.10;78.00;;;;;;5044921;28;20053;-74
2024/03/24 08:14:02;;;;;;;18.83;4.93;;;8.90;80.10;;;;;;5041209;28;20032;-76
2024/03/24 08:16:27;;;;;;;15.77;5.72;;;8.90;80.90;;;;;;5064578;28;20455;-75
2024/03/24 08:18:53;;;;;;;18.38;5.40;;;8.80;81.40;;;;;;5058046;28;20366;-73
2024/03/24 08:21:18;;;;;;;14.15;5.55;;;8.80;82.00;;;;;;5052513;28;20071;-74
2024/03/24 08:23:44;;;;;;;17.13;5.68;;;8.90;82.50;;;;;;5042935;28;20302;-75
2024/03/24 08:26:09;;;;;;;16.17;5.40;;;9.00;82.80;;;;;;5057155;28;20100;-76
2024/03/24 08:28:35;;;;;;;14.10;5.72;;;8.90;82.70;;;;;;5060131;28;20029;-76
2024/03/24 08:31:01;;;;;;;13.75;5.28;;;8.80;83.70;;;;;;5060865;28;20067;-74
2024/03/24 08:33:26;;;;;;;13.60;5.35;;;8.60;83.00;;;;;;5047433;28;20511;-74
2024/03/24 08:35:52;;;;;;;16.70;5.90;;;8.80;83.60;;;;;;5060838;28;20079;-75
2024/03/24 08:38:18;;;;;;;16.73;6.38;;;9.10;83.90;;;;;;5063133;28;20422;-74
2024/03/24 08:40:44;;;;;;;16.75;6.32;;;9.10;83.40;;;;;;5058191;28;20044;-75
2024/03/24 08:43:09;;;;;;;16.45;6.00;;;9.20;83.00;;;;;;5057587;28;20686;-74
2024/03/24 08:45:38;;;;;;;16.00;6.50;;;9.30;82.60;;;;;;5033562;28;20043;-76
2024/03/24 08:48:04;;;;;;;16.80;6.55;;;9.40;81.40;;;;;;5067628;28;20020;-74
2024/03/24 08:50:30;;;;;;;14.35;5.22;;;9.80;81.50;;;;;;5065842;28;20512;-75
2024/03/24 08:52:55;;;;;;;13.82;4.35;;;10.10;79.10;;;;;;5060213;28;20025;-80
2024/03/24 08:55:21;;;;;;;12.93;5.00;;;10.10;76.50;;;;;;5057040;28;20037;-78
2024/03/24 08:57:47;;;;;;;14.82;5.18;;;10.10;76.20;;;;;;5059582;28;20021;-77
2024/03/24 09:00:13;;;;;;;13.88;5.18;;;9.80;76.20;;;;;;5040032;28;20373;-77
2024/03/24 09:02:39;;;;;;;17.50;5.38;;;9.80;77.90;;;;;;5037783;28;20103;-76
2024/03/24 09:05:05;;;;;;;15.20;5.43;;;9.70;79.10;;;;;;5055912;28;20509;-78
2024/03/24 09:07:31;;;;;;;15.07;4.93;;;9.70;79.70;;;;;;5057443;28;20068;-78
2024/03/24 09:09:56;;;;;;;15.60;5.55;;;9.50;80.10;;;;;;5053756;28;20112;-76
2024/03/24 09:12:22;;;;;;;15.32;5.53;;;9.80;80.50;;;;;;5040077;28;20667;-79
2024/03/24 09:14:48;;;;;;;15.25;5.88;;;10.10;78.60;;;;;;5060673;28;20123;-75
2024/03/24 09:17:14;;;;;;;11.95;5.15;;;10.30;78.30;;;;;;5057529;28;20056;-76
2024/03/24 09:19:39;;;;;;;13.60;4.85;;;10.50;77.30;;;;;;5039801;28;20032;-76
2024/03/24 09:22:05;;;;;;;15.82;5.78;;;10.10;78.20;;;;;;5039310;28;20075;-76
2024/03/24 09:24:32;;;;;;;13.05;5.50;;;10.00;79.30;;;;;;5062932;28;20396;-77
2024/03/24 09:26:59;;;;;;;12.93;5.85;;;9.70;79.70;;;;;;5056528;28;20037;-77
2024/03/24 09:29:25;;;;;;;15.40;5.20;;;9.50;81.10;;;;;;5056989;28;20037;-75
2024/03/24 09:31:51;;;;;;;17.38;5.53;;;9.40;81.30;;;;;;5060199;28;20504;-76
2024/03/24 09:34:17;;;;;;;17.85;6.20;;;9.40;81.00;;;;;;5041106;28;20048;-75
2024/03/24 09:36:43;;;;;;;17.60;5.88;;;9.80;80.00;;;;;;5057476;28;20558;-76
2024/03/24 09:39:09;;;;;;;21.70;6.32;;;10.30;80.40;;;;;;5058078;28;20021;-77
2024/03/24 09:41:44;;;;;;;12.95;4.93;;;10.60;78.40;;;;;;5055866;28;20121;-75
2024/03/24 09:44:14;;;;;;;13.73;4.88;;;11.00;76.20;;;;;;5045626;28;20031;-74
2024/03/24 09:46:44;;;;;;;12.45;4.75;;;10.70;74.50;;;;;;5042331;28;20058;-76
2024/03/24 09:49:15;;;;;;;15.40;5.85;;;10.50;74.70;;;;;;5044258;28;20442;-79
2024/03/24 09:51:42;;;;;;;15.50;5.20;;;10.60;75.60;;;;;;5040809;28;20029;-76
2024/03/24 09:54:12;;;;;;;13.82;4.95;;;10.60;75.80;;;;;;5066234;28;20086;-79
2024/03/24 09:56:38;;;;;;;14.00;5.18;;;10.90;74.60;;;;;;5057889;28;20044;-75
2024/03/24 09:59:05;;;;;;;11.27;4.57;;;10.70;72.90;;;;;;5063234;28;20032;-75
2024/03/24 10:01:39;;;;;;;10.52;5.03;;;10.60;72.30;;;;;;5062531;28;20049;-76
2024/03/24 10:04:05;;;;;;;13.45;3.75;;;10.80;72.80;;;;;;5062601;28;20333;-75
2024/03/24 10:06:32;;;;;;;11.00;4.80;;;11.10;69.80;;;;;;5041757;28;20124;-77
2024/03/24 10:08:58;;;;;;;13.43;5.03;;;11.20;70.20;;;;;;5053793;28;20016;-77
2024/03/24 10:11:34;;;;;;;10.77;4.70;;;11.10;69.40;;;;;;5040560;28;20106;-77
2024/03/24 10:14:01;;;;;;;12.63;3.75;;;10.90;70.30;;;;;;5061655;28;20035;-79
2024/03/24 10:16:28;;;;;;;13.27;3.65;;;11.10;68.80;;;;;;5056339;28;20036;-79
2024/03/24 10:18:53;;;;;;;11.02;4.00;;;11.50;68.80;;;;;;5043859;28;20455;-76
2024/03/24 10:21:20;;;;;;;12.30;3.90;;;11.40;68.30;;;;;;5042867;28;20138;-76
2024/03/24 10:23:46;;;;;;;11.65;3.58;;;11.30;67.90;;;;;;5063704;28;20043;-77
2024/03/24 10:26:19;;;;;;;12.45;4.05;;;11.20;67.30;;;;;;5061789;28;20123;-74
2024/03/24 10:28:45;;;;;;;11.43;4.13;;;11.40;68.50;;;;;;5064797;28;20033;-80
2024/03/24 10:31:11;;;;;;;10.88;3.80;;;11.60;67.30;;;;;;5043738;28;20055;-77
2024/03/24 10:33:40;;;;;;;12.63;3.78;;;11.60;66.80;;;;;;5040085;28;20025;-74
2024/03/24 10:36:07;;;;;;;15.18;3.95;;;11.70;66.50;;;;;;5040255;28;20036;-76
2024/03/24 10:38:34;;;;;;;12.05;4.50;;;11.20;68.00;;;;;;5058633;28;20120;-79
2024/03/24 10:41:01;;;;;;;13.48;4.15;;;10.70;67.90;;;;;;5045413;28;20048;-74
2024/03/24 10:43:26;;;;;;;9.70;3.63;;;10.60;69.70;;;;;;5062747;28;20025;-77
2024/03/24 10:45:53;;;;;;;11.88;3.72;;;10.70;68.60;;;;;;5037504;28;20036;-75
2024/03/24 10:48:28;;;;;;;12.32;4.95;;;11.00;67.80;;;;;;5057813;28;20330;-74
2024/03/24 10:50:54;;;;;;;;;;;11.50;67.80;;;;;;5035826;28;20498;-74
2024/03/24 10:53:25;;;;;;;14.95;4.22;;;12.00;67.50;;;;;;5037327;28;19944;-79
2024/03/24 10:55:53;;;;;;;9.98;3.10;;;11.60;66.90;;;;;;5055044;28;20121;-75
2024/03/24 10:58:20;;;;;;;16.45;3.70;;;11.50;66.90;;;;;;5043470;28;20047;-74
2024/03/24 11:00:46;;;;;;;11.80;3.58;;;11.20;67.30;;;;;;5053108;28;20058;-77
2024/03/24 11:03:16;;;;;;;15.40;4.18;;;11.20;67.80;;;;;;5041396;28;20507;-73
2024/03/24 11:05:47;;;;;;;10.60;3.83;;;11.10;67.90;;;;;;5054158;28;20055;-76
2024/03/24 11:08:15;;;;;;;12.35;3.25;;;11.20;66.50;;;;;;5044516;28;20021;-74
2024/03/24 11:10:46;;;;;;;14.23;4.03;;;11.30;67.70;;;;;;5038432;28;20373;-80
2024/03/24 11:13:18;;;;;;;10.27;3.17;;;11.00;66.90;;;;;;5042472;28;20024;-76
2024/03/24 11:15:48;;;;;;;9.23;2.97;;;10.80;66.90;;;;;;5041541;28;20493;-77
2024/03/24 11:18:23;;;;;;;13.38;3.55;;;10.90;66.60;;;;;;5043384;28;20087;-77
2024/03/24 11:20:53;;;;;;;10.52;4.05;;;11.10;66.60;;;;;;5042554;28;20040;-75
2024/03/24 11:23:21;;;;;;;12.15;4.15;;;11.10;66.90;;;;;;5060502;28;20033;-77
2024/03/24 11:26:01;;;;;;;8.68;3.33;;;11.40;67.60;;;;;;5061250;28;20048;-79
2024/03/24 11:28:48;;;;;;;11.95;4.15;;;11.60;67.20;;;;;;5047125;28;20027;-77
2024/03/24 11:31:20;;;;;;;10.10;3.00;;;11.50;63.40;;;;;;5059090;28;20028;-77
2024/03/24 11:34:05;;;;;;;9.93;3.45;;;11.40;64.00;;;;;;5042127;28;20249;-79
2024/03/24 11:36:32;;;;;;;8.25;3.20;;;11.60;65.10;;;;;;5049180;28;20075;-78
2024/03/24 11:39:00;;;;;;;10.20;3.47;;;11.20;64.20;;;;;;5061389;28;20039;-78
2024/03/24 11:41:26;;;;;;;11.00;3.90;;;11.00;66.70;;;;;;5042417;28;20614;-76
2024/03/24 11:44:07;;;;;;;11.93;3.83;;;10.70;67.50;;;;;;5039978;28;20021;-75
2024/03/24 11:46:36;;;;;;;11.30;3.90;;;11.00;69.00;;;;;;5060137;28;20041;-76
2024/03/24 11:49:02;;;;;;;8.90;3.35;;;11.00;68.20;;;;;;5042194;28;20087;-77
2024/03/24 11:51:30;;;;;;;12.63;3.50;;;10.80;67.80;;;;;;5060554;28;20036;-77
2024/03/24 11:53:56;;;;;;;11.52;3.70;;;10.90;67.60;;;;;;5038632;28;20455;-76
2024/03/24 11:56:24;;;;;;;12.05;3.83;;;10.90;67.50;;;;;;5057573;28;20040;-78
2024/03/24 11:58:51;;;;;;;12.40;3.65;;;11.10;67.60;;;;;;5057555;28;20293;-75
2024/03/24 12:01:18;;;;;;;9.15;3.85;;;11.10;67.20;;;;;;5037226;28;20458;-76
2024/03/24 12:03:44;;;;;;;11.75;3.70;;;11.10;66.60;;;;;;5053829;28;21037;-79
2024/03/24 12:06:13;;;;;;;13.68;3.90;;;11.40;66.90;;;;;;5042638;28;20041;-77
2024/03/24 12:08:40;;;;;;;10.95;4.05;;;11.40;66.50;;;;;;5056243;28;20042;-75
2024/03/24 12:11:06;;;;;;;11.73;3.28;;;11.10;67.10;;;;;;5037584;28;20069;-78
2024/03/24 12:13:32;;;;;;;12.40;3.67;;;11.10;68.10;;;;;;5043327;28;20313;-75
2024/03/24 12:15:58;;;;;;;11.98;3.67;;;11.10;67.90;;;;;;5040225;28;20097;-76
2024/03/24 12:18:23;;;;;;;11.32;4.00;;;11.10;68.10;;;;;;5039463;28;20556;-78
2024/03/24 12:20:49;;;;;;;10.55;3.67;;;11.40;67.10;;;;;;5057366;28;20039;-75
2024/03/24 12:23:15;;;;;;;10.88;4.50;;;11.60;65.10;;;;;;5042340;28;20103;-75
2024/03/24 12:25:45;;;;;;;11.85;5.45;;;11.60;65.90;;;;;;5038433;28;20386;-77
2024/03/24 12:28:17;;;;;;;9.70;4.20;;;11.50;64.70;;;;;;5041504;28;20042;-75
2024/03/24 12:30:49;;;;;;;9.88;3.35;;;11.40;65.50;;;;;;5055045;28;20036;-77
2024/03/24 12:33:18;;;;;;;12.10;3.50;;;11.20;66.40;;;;;;5053371;28;20474;-76
2024/03/24 12:35:44;;;;;;;10.85;3.67;;;11.20;66.80;;;;;;5040606;28;20097;-78
2024/03/24 12:38:11;;;;;;;9.63;3.45;;;11.20;66.90;;;;;;5039206;28;20297;-75
2024/03/24 12:40:38;;;;;;;10.55;4.22;;;11.20;67.40;;;;;;5039218;28;20045;-77
2024/03/24 12:43:12;;;;;;;10.68;3.38;;;11.40;68.50;;;;;;5038678;28;20469;-76